createdAt,value
2022-10-25T00:00:10.961Z,98406.56
2022-10-25T00:03:00.092Z,98390.88
2022-10-25T00:05:47.678Z,98405.53
2022-10-25T00:08:35.359Z,98402.34
2022-10-25T00:11:26.371Z,98405.16
2022-10-25T00:14:18.557Z,98401.16
2022-10-25T00:17:06.167Z,98403.47
2022-10-25T00:19:55.098Z,98404.63
2022-10-25T00:22:43.237Z,98407.72
2022-10-25T00:25:31.108Z,98399.22
2022-10-25T00:28:18.517Z,98406.72
2022-10-25T00:31:09.831Z,98400.03
2022-10-25T00:33:57.276Z,98406.00
2022-10-25T00:36:46.342Z,98408.28
2022-10-25T00:39:34.161Z,98417.59
2022-10-25T00:42:25.415Z,98415.41
2022-10-25T00:45:23.176Z,98421.34
2022-10-25T00:48:13.483Z,98426.13
2022-10-25T00:51:01.935Z,98430.09
2022-10-25T00:53:51.510Z,98425.25
2022-10-25T00:56:43.875Z,98437.19
2022-10-25T00:59:32.844Z,98434.84
2022-10-25T01:02:24.940Z,98437.97
2022-10-25T01:05:13.642Z,98432.00
2022-10-25T01:08:01.280Z,98432.47
2022-10-25T01:10:51.743Z,98430.91
2022-10-25T01:13:40.325Z,98429.56
2022-10-25T01:16:44.548Z,98427.22
2022-10-25T01:20:12.428Z,98435.19
2022-10-25T01:23:20.695Z,98436.34
2022-10-25T01:26:51.929Z,98429.53
2022-10-25T01:30:08.194Z,98425.72
2022-10-25T01:33:16.056Z,98433.53
2022-10-25T01:36:15.621Z,98433.84
2022-10-25T01:39:16.402Z,98438.09
2022-10-25T01:42:13.922Z,98433.59
2022-10-25T01:45:12.398Z,98435.91
2022-10-25T01:48:11.111Z,98432.03
2022-10-25T01:51:10.826Z,98440.38
2022-10-25T01:53:58.920Z,98445.34
2022-10-25T01:56:59.256Z,98448.59
2022-10-25T02:00:07.149Z,98445.25
2022-10-25T02:03:18.214Z,98451.16
2022-10-25T02:06:25.710Z,98445.50
2022-10-25T02:09:24.744Z,98452.06
2022-10-25T02:12:22.557Z,98452.38
2022-10-25T02:15:17.669Z,98446.84
2022-10-25T02:18:14.356Z,98443.63
2022-10-25T02:21:06.365Z,98446.59
2022-10-25T02:23:57.558Z,98443.25
2022-10-25T02:29:44.239Z,98430.44
2022-10-25T02:32:32.209Z,98434.19
2022-10-25T02:35:21.344Z,98435.50
2022-10-25T02:38:10.185Z,98433.97
2022-10-25T02:40:59.031Z,98442.22
2022-10-25T02:43:49.383Z,98446.69
2022-10-25T02:46:37.212Z,98442.81
2022-10-25T02:49:25.080Z,98443.66
2022-10-25T02:52:13.849Z,98448.56
2022-10-25T02:55:01.390Z,98453.88
2022-10-25T02:57:48.827Z,98457.22
2022-10-25T03:00:36.435Z,98455.53
2022-10-25T03:03:23.766Z,98457.88
2022-10-25T03:06:12.904Z,98465.84
2022-10-25T03:09:01.989Z,98460.16
2022-10-25T03:11:50.110Z,98463.66
2022-10-25T03:14:37.691Z,98464.91
2022-10-25T03:17:25.158Z,98462.91
2022-10-25T03:20:12.845Z,98463.75
2022-10-25T03:23:00.233Z,98466.16
2022-10-25T03:25:54.278Z,98470.66
2022-10-25T03:28:41.834Z,98468.00
2022-10-25T03:31:29.406Z,98470.78
2022-10-25T03:34:16.849Z,98469.94
2022-10-25T03:37:04.187Z,98470.53
2022-10-25T03:39:51.638Z,98469.44
2022-10-25T03:42:40.475Z,98477.56
2022-10-25T03:45:28.529Z,98484.00
2022-10-25T03:48:16.473Z,98477.19
2022-10-25T03:51:04.278Z,98487.09
2022-10-25T03:53:51.887Z,98485.97
2022-10-25T03:56:39.624Z,98482.63
2022-10-25T03:59:28.982Z,98489.06
2022-10-25T04:02:17.581Z,98488.25
2022-10-25T04:05:06.793Z,98485.09
2022-10-25T04:07:54.823Z,98488.84
2022-10-25T04:10:42.381Z,98488.31
2022-10-25T04:13:29.846Z,98487.75
2022-10-25T04:16:19.239Z,98481.88
2022-10-25T04:19:06.891Z,98489.16
2022-10-25T04:21:54.556Z,98487.94
2022-10-25T04:24:42.058Z,98482.50
2022-10-25T04:27:29.483Z,98493.91
2022-10-25T04:30:17.481Z,98494.47
2022-10-25T04:33:06.435Z,98501.75
2022-10-25T04:35:58.115Z,98505.00
2022-10-25T04:38:48.926Z,98495.75
2022-10-25T04:41:36.453Z,98500.50
2022-10-25T04:44:23.998Z,98506.22
2022-10-25T04:47:11.688Z,98504.56
2022-10-25T04:50:00.944Z,98499.78
2022-10-25T04:52:49.125Z,98506.66
2022-10-25T04:55:37.443Z,98503.16
2022-10-25T04:58:30.350Z,98506.50
2022-10-25T05:01:20.529Z,98520.72
2022-10-25T05:04:08.087Z,98521.28
2022-10-25T05:06:56.760Z,98520.63
2022-10-25T05:09:46.657Z,98528.84
2022-10-25T05:12:35.510Z,98528.03
2022-10-25T05:15:23.037Z,98516.59
2022-10-25T05:18:10.574Z,98518.81
2022-10-25T05:21:01.745Z,98520.75
2022-10-25T05:23:50.547Z,98530.56
2022-10-25T05:26:38.010Z,98525.22
2022-10-25T05:29:25.719Z,98532.78
2022-10-25T05:32:13.220Z,98535.53
2022-10-25T05:35:00.663Z,98543.63
2022-10-25T05:37:49.264Z,98549.34
2022-10-25T05:40:38.241Z,98542.47
2022-10-25T05:43:27.405Z,98546.66
2022-10-25T05:46:18.476Z,98547.72
2022-10-25T05:49:06.177Z,98551.59
2022-10-25T05:51:53.751Z,98556.16
2022-10-25T05:54:41.615Z,98548.75
2022-10-25T05:57:30.830Z,98559.66
2022-10-25T06:00:19.502Z,98560.09
2022-10-25T06:03:06.898Z,98576.66
2022-10-25T06:05:54.342Z,98574.16
2022-10-25T06:08:41.961Z,98578.66
2022-10-25T06:11:30.940Z,98573.59
2022-10-25T06:14:19.921Z,98582.28
2022-10-25T06:17:07.815Z,98589.97
2022-10-25T06:19:55.380Z,98585.59
2022-10-25T06:22:43.809Z,98595.66
2022-10-25T06:25:31.595Z,98599.00
2022-10-25T06:28:19.027Z,98592.56
2022-10-25T06:31:12.388Z,98598.16
2022-10-25T06:34:01.360Z,98604.91
2022-10-25T06:36:48.876Z,98602.81
2022-10-25T06:39:36.287Z,98611.59
2022-10-25T06:42:52.348Z,98612.63
2022-10-25T06:45:39.979Z,98609.78
2022-10-25T06:48:29.371Z,98610.34
2022-10-25T06:51:16.835Z,98617.75
2022-10-25T06:54:08.133Z,98626.97
2022-10-25T06:56:55.874Z,98624.09
2022-10-25T06:59:43.412Z,98615.25
2022-10-25T07:02:30.836Z,98625.13
2022-10-25T07:05:19.538Z,98617.38
2022-10-25T07:08:07.239Z,98622.09
2022-10-25T07:10:55.650Z,98636.72
2022-10-25T07:13:43.771Z,98628.50
2022-10-25T07:16:31.735Z,98637.13
2022-10-25T07:19:19.483Z,98635.50
2022-10-25T07:22:08.150Z,98634.91
2022-10-25T07:24:55.961Z,98632.28
2022-10-25T07:27:43.457Z,98628.63
2022-10-25T07:30:32.261Z,98632.53
2022-10-25T07:33:21.477Z,98640.13
2022-10-25T07:36:11.773Z,98635.34
2022-10-25T07:39:01.441Z,98639.63
2022-10-25T07:41:49.958Z,98641.88
2022-10-25T07:44:37.591Z,98638.19
2022-10-25T07:47:25.520Z,98639.06
2022-10-25T07:50:13.370Z,98650.09
2022-10-25T07:53:00.688Z,98650.72
2022-10-25T07:55:53.822Z,98654.59
2022-10-25T07:58:41.421Z,98647.34
2022-10-25T08:01:29.837Z,98641.56
2022-10-25T08:04:18.555Z,98642.56
2022-10-25T08:07:06.293Z,98644.41
2022-10-25T08:09:53.810Z,98639.59
2022-10-25T08:12:42.793Z,98637.31
2022-10-25T08:15:30.627Z,98638.41
2022-10-25T08:18:18.457Z,98651.75
2022-10-25T08:21:07.436Z,98648.41
2022-10-25T08:23:55.132Z,98641.25
2022-10-25T08:26:42.742Z,98639.97
2022-10-25T08:29:31.517Z,98634.63
2022-10-25T08:32:19.153Z,98628.81
2022-10-25T08:35:07.423Z,98630.63
2022-10-25T08:37:54.868Z,98625.19
2022-10-25T08:40:55.353Z,98636.78
2022-10-25T08:44:15.715Z,98641.78
2022-10-25T08:47:14.534Z,98639.94
2022-10-25T08:50:11.790Z,98634.13
2022-10-25T08:53:04.994Z,98631.13
2022-10-25T08:56:11.421Z,98628.28
2022-10-25T08:59:03.592Z,98626.94
2022-10-25T09:01:57.456Z,98629.59
2022-10-25T09:04:46.710Z,98625.56
2022-10-25T09:08:11.803Z,98628.59
2022-10-25T09:11:20.861Z,98629.56
2022-10-25T09:14:26.298Z,98634.06
2022-10-25T09:17:21.086Z,98629.75
2022-10-25T09:20:21.264Z,98619.50
2022-10-25T09:26:19.267Z,98619.31
2022-10-25T09:29:22.241Z,98625.16
2022-10-25T09:32:26.231Z,98625.66
2022-10-25T09:35:20.903Z,98629.47
2022-10-25T09:38:19.150Z,98627.13
2022-10-25T09:41:17.166Z,98631.78
2022-10-25T09:44:13.946Z,98632.09
2022-10-25T09:47:13.925Z,98626.72
2022-10-25T09:50:06.050Z,98635.03
2022-10-25T09:53:18.833Z,98628.59
2022-10-25T09:56:10.524Z,98625.16
2022-10-25T09:59:01.513Z,98622.81
2022-10-25T10:01:49.510Z,98625.47
2022-10-25T10:04:40.732Z,98624.22
2022-10-25T10:07:34.222Z,98624.31
2022-10-25T10:10:27.853Z,98627.97
2022-10-25T10:13:34.961Z,98634.25
2022-10-25T10:16:30.508Z,98635.16
2022-10-25T10:19:21.174Z,98640.38
2022-10-25T10:22:15.207Z,98627.53
2022-10-25T10:25:04.626Z,98634.59
2022-10-25T10:27:58.584Z,98628.56
2022-10-25T10:31:02.341Z,98628.47
2022-10-25T10:33:52.306Z,98619.44
2022-10-25T10:36:40.129Z,98613.81
2022-10-25T10:39:27.563Z,98609.28
2022-10-25T10:42:18.309Z,98596.75
2022-10-25T10:45:18.562Z,98606.72
2022-10-25T10:48:06.928Z,98600.84
2022-10-25T10:50:57.832Z,98597.34
2022-10-25T10:53:45.383Z,98597.44
2022-10-25T10:56:34.174Z,98603.00
2022-10-25T10:59:41.023Z,98598.00
2022-10-25T11:02:43.534Z,98603.22
2022-10-25T11:05:34.883Z,98589.47
2022-10-25T11:08:22.576Z,98607.81
2022-10-25T11:11:18.124Z,98598.84
2022-10-25T11:14:13.611Z,98600.78
2022-10-25T11:17:07.984Z,98595.97
2022-10-25T11:20:24.900Z,98595.09
2022-10-25T11:23:22.938Z,98578.09
2022-10-25T11:26:20.037Z,98581.69
2022-10-25T11:29:18.898Z,98591.50
2022-10-25T11:32:46.402Z,98590.38
2022-10-25T11:36:03.728Z,98573.81
2022-10-25T11:39:15.021Z,98570.50
2022-10-25T11:45:39.418Z,98568.00
2022-10-25T11:48:48.168Z,98554.91
2022-10-25T11:51:50.142Z,98550.97
2022-10-25T11:54:45.971Z,98554.31
2022-10-25T11:57:48.748Z,98548.72
2022-10-25T12:00:51.314Z,98542.69
2022-10-25T12:04:26.939Z,98549.00
2022-10-25T12:07:29.910Z,98544.53
2022-10-25T12:10:30.009Z,98546.47
2022-10-25T12:13:22.990Z,98535.75
2022-10-25T12:16:15.152Z,98534.50
2022-10-25T12:19:13.078Z,98536.59
2022-10-25T12:22:06.004Z,98533.22
2022-10-25T12:25:02.133Z,98543.34
2022-10-25T12:28:00.889Z,98534.66
2022-10-25T12:30:51.746Z,98529.50
2022-10-25T12:33:44.989Z,98540.59
2022-10-25T12:36:39.174Z,98523.47
2022-10-25T12:39:39.676Z,98521.97
2022-10-25T12:42:38.194Z,98530.63
2022-10-25T12:46:06.264Z,98527.56
2022-10-25T12:49:29.137Z,98524.69
2022-10-25T12:52:32.333Z,98522.19
2022-10-25T12:55:43.538Z,98528.31
2022-10-25T12:59:00.704Z,98519.38
2022-10-25T13:02:12.285Z,98521.13
2022-10-25T13:05:34.740Z,98534.91
2022-10-25T13:08:26.875Z,98522.59
2022-10-25T13:11:14.948Z,98525.53
2022-10-25T13:14:05.613Z,98531.41
2022-10-25T13:16:53.159Z,98537.63
2022-10-25T13:19:56.343Z,98534.75
2022-10-25T13:22:44.752Z,98536.84
2022-10-25T13:26:08.138Z,98537.31
2022-10-25T13:28:58.788Z,98533.16
2022-10-25T13:32:10.203Z,98524.88
2022-10-25T13:35:00.047Z,98532.75
2022-10-25T13:37:50.456Z,98529.44
2022-10-25T13:40:39.250Z,98528.16
2022-10-25T13:43:26.876Z,98533.34
2022-10-25T13:46:16.476Z,98531.69
2022-10-25T13:49:33.987Z,98527.69
2022-10-25T13:52:29.619Z,98522.28
2022-10-25T13:55:23.229Z,98523.91
2022-10-25T13:58:49.608Z,98533.44
2022-10-25T14:01:57.772Z,98532.97
2022-10-25T14:04:47.160Z,98532.97
2022-10-25T14:07:50.958Z,98543.28
2022-10-25T14:10:39.673Z,98548.63
2022-10-25T14:13:46.065Z,98557.09
2022-10-25T14:16:37.536Z,98558.91
2022-10-25T14:19:37.572Z,98562.38
2022-10-25T14:22:34.961Z,98565.84
2022-10-25T14:25:25.667Z,98555.88
2022-10-25T14:28:17.206Z,98560.81
2022-10-25T14:31:07.713Z,98546.75
2022-10-25T14:33:57.056Z,98550.00
2022-10-25T14:36:51.310Z,98552.06
2022-10-25T14:39:53.549Z,98545.84
2022-10-25T14:42:41.076Z,98541.06
2022-10-25T14:45:28.554Z,98549.75
2022-10-25T14:48:16.217Z,98554.53
2022-10-25T14:51:09.420Z,98547.84
2022-10-25T14:54:02.854Z,98556.97
2022-10-25T14:56:56.085Z,98557.34
2022-10-25T14:59:51.986Z,98552.38
2022-10-25T15:02:41.714Z,98544.69
2022-10-25T15:05:29.716Z,98540.94
2022-10-25T15:08:23.077Z,98548.53
2022-10-25T15:11:17.820Z,98532.19
2022-10-25T15:14:22.741Z,98538.56
2022-10-25T15:17:20.715Z,98528.84
2022-10-25T15:20:29.524Z,98526.94
2022-10-25T15:23:21.761Z,98533.09
2022-10-25T15:26:27.787Z,98526.84
2022-10-25T15:29:32.976Z,98529.69
2022-10-25T15:32:23.921Z,98533.28
2022-10-25T15:35:25.698Z,98534.44
2022-10-25T15:38:13.545Z,98533.09
2022-10-25T15:41:01.398Z,98536.13
2022-10-25T15:43:49.154Z,98544.47
2022-10-25T15:46:38.143Z,98538.59
2022-10-25T15:49:26.076Z,98540.09
2022-10-25T15:52:16.447Z,98548.66
2022-10-25T15:55:04.125Z,98541.06
2022-10-25T15:57:52.430Z,98540.91
2022-10-25T16:00:40.709Z,98554.78
2022-10-25T16:03:29.578Z,98552.53
2022-10-25T16:06:17.134Z,98555.69
2022-10-25T16:09:04.637Z,98554.84
2022-10-25T16:11:56.226Z,98554.81
2022-10-25T16:14:43.834Z,98552.13
2022-10-25T16:17:31.696Z,98557.44
2022-10-25T16:20:23.822Z,98557.56
2022-10-25T16:23:11.370Z,98572.53
2022-10-25T16:25:59.676Z,98570.84
2022-10-25T16:28:47.493Z,98574.25
2022-10-25T16:31:35.305Z,98567.81
2022-10-25T16:34:23.470Z,98572.91
2022-10-25T16:37:12.349Z,98568.28
2022-10-25T16:39:59.733Z,98569.03
2022-10-25T16:42:48.217Z,98575.75
2022-10-25T16:45:38.375Z,98577.09
2022-10-25T16:48:26.407Z,98581.13
2022-10-25T16:51:16.270Z,98581.50
2022-10-25T16:54:07.027Z,98583.50
2022-10-25T16:56:54.818Z,98587.38
2022-10-25T16:59:42.341Z,98585.88
2022-10-25T17:02:29.663Z,98593.22
2022-10-25T17:05:22.110Z,98586.53
2022-10-25T17:08:09.501Z,98598.38
2022-10-25T17:10:58.349Z,98596.88
2022-10-25T17:13:46.361Z,98597.88
2022-10-25T17:16:34.312Z,98596.16
2022-10-25T17:19:21.687Z,98598.13
2022-10-25T17:22:09.620Z,98591.25
2022-10-25T17:24:57.244Z,98597.41
2022-10-25T17:27:47.990Z,98599.22
2022-10-25T17:30:36.036Z,98596.69
2022-10-25T17:33:26.213Z,98601.28
2022-10-25T17:36:17.468Z,98600.56
2022-10-25T17:39:07.714Z,98595.22
2022-10-25T17:41:55.239Z,98597.69
2022-10-25T17:44:44.606Z,98605.50
2022-10-25T17:47:32.003Z,98598.28
2022-10-25T17:50:21.397Z,98599.06
2022-10-25T17:53:11.925Z,98598.03
2022-10-25T17:55:59.933Z,98597.00
2022-10-25T17:58:49.330Z,98605.22
2022-10-25T18:01:40.034Z,98601.50
2022-10-25T18:04:27.885Z,98602.09
2022-10-25T18:07:15.902Z,98602.41
2022-10-25T18:10:03.454Z,98594.03
2022-10-25T18:12:51.411Z,98604.31
2022-10-25T18:15:39.391Z,98596.94
2022-10-25T18:18:28.799Z,98594.91
2022-10-25T18:21:17.636Z,98600.00
2022-10-25T18:24:06.828Z,98597.81
2022-10-25T18:26:54.160Z,98600.22
2022-10-25T18:29:42.031Z,98605.19
2022-10-25T18:32:33.687Z,98597.66
2022-10-25T18:35:25.119Z,98592.63
2022-10-25T18:38:17.099Z,98587.22
2022-10-25T18:41:08.320Z,98590.50
2022-10-25T18:43:57.026Z,98583.09
2022-10-25T18:46:45.078Z,98587.22
2022-10-25T18:49:32.962Z,98583.34
2022-10-25T18:52:22.262Z,98582.13
2022-10-25T18:55:10.161Z,98595.91
2022-10-25T18:58:01.366Z,98600.69
2022-10-25T19:00:49.031Z,98591.94
2022-10-25T19:03:36.628Z,98589.44
2022-10-25T19:06:24.027Z,98589.72
2022-10-25T19:09:14.327Z,98594.19
2022-10-25T19:12:02.096Z,98589.47
2022-10-25T19:14:49.505Z,98591.59
2022-10-25T19:17:36.938Z,98575.25
2022-10-25T19:20:24.711Z,98572.03
2022-10-25T19:23:12.484Z,98574.31
2022-10-25T19:26:04.084Z,98580.91
2022-10-25T19:28:58.619Z,98575.16
2022-10-25T19:31:46.020Z,98575.56
2022-10-25T19:34:33.390Z,98568.91
2022-10-25T19:37:20.868Z,98573.94
2022-10-25T19:40:11.556Z,98573.00
2022-10-25T19:43:00.894Z,98575.78
2022-10-25T19:45:48.483Z,98572.56
2022-10-25T19:48:36.868Z,98576.50
2022-10-25T19:51:24.360Z,98583.78
2022-10-25T19:54:12.015Z,98577.91
2022-10-25T19:57:01.075Z,98570.25
2022-10-25T19:59:50.002Z,98566.22
2022-10-25T20:02:37.826Z,98566.50
2022-10-25T20:05:26.085Z,98572.09
2022-10-25T20:08:13.659Z,98571.53
2022-10-25T20:11:01.445Z,98571.94
2022-10-25T20:13:49.398Z,98572.22
2022-10-25T20:16:38.546Z,98568.91
2022-10-25T20:19:26.096Z,98570.84
2022-10-25T20:22:13.735Z,98573.78
2022-10-25T20:25:01.477Z,98581.34
2022-10-25T20:27:49.176Z,98581.47
2022-10-25T20:30:38.679Z,98592.22
2022-10-25T20:33:27.553Z,98588.16
2022-10-25T20:36:15.490Z,98591.13
2022-10-25T20:39:03.351Z,98585.13
2022-10-25T20:41:51.300Z,98589.72
2022-10-25T20:44:38.853Z,98589.97
2022-10-25T20:47:26.280Z,98588.59
2022-10-25T20:50:14.954Z,98588.88
2022-10-25T20:53:10.754Z,98594.44
2022-10-25T20:55:58.687Z,98595.56
2022-10-25T20:58:46.674Z,98587.19
2022-10-25T21:01:34.475Z,98592.78
2022-10-25T21:04:36.058Z,98588.44
2022-10-25T21:07:33.745Z,98583.69
2022-10-25T21:10:21.533Z,98583.03
2022-10-25T21:13:10.282Z,98583.28
2022-10-25T21:15:58.236Z,98588.03
2022-10-25T21:18:46.309Z,98579.34
2022-10-25T21:21:34.062Z,98572.66
2022-10-25T21:24:22.981Z,98572.94
2022-10-25T21:27:10.853Z,98569.59
2022-10-25T21:30:00.320Z,98570.69
2022-10-25T21:32:51.253Z,98566.53
2022-10-25T21:35:38.946Z,98571.38
2022-10-25T21:38:26.644Z,98570.56
2022-10-25T21:41:19.743Z,98562.03
2022-10-25T21:46:54.921Z,98559.94
2022-10-25T21:49:42.377Z,98558.25
2022-10-25T21:52:31.494Z,98562.84
2022-10-25T21:55:20.892Z,98554.22
2022-10-25T21:58:09.941Z,98561.47
2022-10-25T22:00:57.273Z,98551.97
2022-10-25T22:03:44.858Z,98556.69
2022-10-25T22:06:32.335Z,98548.06
2022-10-25T22:09:19.793Z,98543.03
2022-10-25T22:12:07.618Z,98552.06
2022-10-25T22:14:57.304Z,98547.75
2022-10-25T22:17:45.038Z,98550.50
2022-10-25T22:20:32.687Z,98541.03
2022-10-25T22:23:20.083Z,98543.81
2022-10-25T22:26:10.602Z,98547.41
2022-10-25T22:29:00.304Z,98542.41
2022-10-25T22:31:50.567Z,98536.41
2022-10-25T22:34:38.135Z,98529.59
2022-10-25T22:37:25.340Z,98541.25
2022-10-25T22:40:12.948Z,98544.03
2022-10-25T22:43:04.025Z,98542.50
2022-10-25T22:45:51.939Z,98544.31
2022-10-25T22:48:43.721Z,98531.91
2022-10-25T22:51:31.103Z,98535.53
2022-10-25T22:54:18.506Z,98539.84
2022-10-25T22:57:05.954Z,98539.72
2022-10-25T22:59:53.423Z,98544.31
2022-10-25T23:02:40.809Z,98532.91
2022-10-25T23:05:29.558Z,98534.56
2022-10-25T23:08:16.988Z,98539.00
2022-10-25T23:11:07.833Z,98537.22
2022-10-25T23:13:55.713Z,98535.53
2022-10-25T23:16:43.159Z,98536.63
2022-10-25T23:19:30.405Z,98531.19
2022-10-25T23:22:19.116Z,98535.81
2022-10-25T23:25:08.061Z,98534.13
2022-10-25T23:27:55.369Z,98530.53
2022-10-25T23:30:44.598Z,98532.31
2022-10-25T23:33:32.345Z,98525.50
2022-10-25T23:36:22.080Z,98529.00
2022-10-25T23:39:11.400Z,98534.41
2022-10-25T23:41:58.771Z,98532.84
2022-10-25T23:44:46.241Z,98537.31
2022-10-25T23:47:34.641Z,98534.81
2022-10-25T23:50:22.334Z,98532.28
2022-10-25T23:53:10.260Z,98530.06
2022-10-25T23:55:59.733Z,98520.53
2022-10-25T23:58:50.409Z,98529.34
